createdAt,value
2019-01-06T00:01:29.027Z,11.90
2019-01-06T00:06:22.911Z,14.67
2019-01-06T00:11:25.483Z,14.53
2019-01-06T00:16:21.905Z,16.60
2019-01-06T00:21:21.489Z,18.70
2019-01-06T00:26:15.469Z,12.83
2019-01-06T00:31:09.417Z,19.63
2019-01-06T00:36:15.258Z,15.93
2019-01-06T00:41:08.980Z,19.30
2019-01-06T00:46:02.964Z,20.57
2019-01-06T00:51:02.446Z,30.43
2019-01-06T00:56:08.344Z,19.07
2019-01-06T01:01:20.074Z,25.60
2019-01-06T01:06:19.945Z,24.00
2019-01-06T01:11:29.673Z,21.27
2019-01-06T01:16:23.553Z,26.73
2019-01-06T01:21:35.255Z,19.63
2019-01-06T01:26:48.327Z,19.87
2019-01-06T01:31:39.337Z,21.87
2019-01-06T01:36:33.301Z,18.07
2019-01-06T01:41:27.286Z,18.57
2019-01-06T01:46:21.308Z,17.73
2019-01-06T01:51:15.090Z,16.80
2019-01-06T01:56:25.335Z,21.37
2019-01-06T02:01:28.287Z,17.57
2019-01-06T02:06:28.245Z,16.00
2019-01-06T02:11:24.893Z,16.07
2019-01-06T02:16:18.789Z,14.70
2019-01-06T02:21:27.913Z,14.83
2019-01-06T02:26:21.527Z,13.47
2019-01-06T02:31:24.050Z,14.50
2019-01-06T02:36:34.105Z,15.13
2019-01-06T02:41:40.418Z,17.83
2019-01-06T02:46:40.246Z,14.10
2019-01-06T02:51:37.169Z,15.70
2019-01-06T02:56:36.636Z,12.97
2019-01-06T03:01:33.028Z,14.70
2019-01-06T03:06:35.655Z,17.13
2019-01-06T03:11:41.387Z,14.67
2019-01-06T03:16:47.171Z,14.77
2019-01-06T03:21:56.704Z,14.20
2019-01-06T03:26:50.761Z,13.67
2019-01-06T03:31:53.241Z,13.70
2019-01-06T03:36:49.964Z,12.57
2019-01-06T03:41:46.455Z,12.33
2019-01-06T03:46:40.258Z,14.83
2019-01-06T03:51:37.060Z,12.70
2019-01-06T03:56:42.645Z,11.93
2019-01-06T04:01:42.382Z,13.07
2019-01-06T04:06:38.890Z,11.93
2019-01-06T04:11:44.713Z,12.87
2019-01-06T04:16:54.881Z,11.27
2019-01-06T04:21:51.357Z,13.07
2019-01-06T04:26:53.737Z,11.50
2019-01-06T04:31:47.632Z,10.50
2019-01-06T04:36:56.534Z,11.63
2019-01-06T04:42:06.443Z,13.70
2019-01-06T04:47:12.050Z,13.27
2019-01-06T04:52:08.934Z,15.17
2019-01-06T04:57:05.505Z,15.40
2019-01-06T05:02:02.312Z,16.30
2019-01-06T05:06:56.066Z,17.03
2019-01-06T05:11:50.054Z,14.73
2019-01-06T05:16:59.742Z,14.73
2019-01-06T05:22:02.121Z,14.90
2019-01-06T05:26:55.686Z,16.03
2019-01-06T05:31:55.066Z,16.50
2019-01-06T05:37:06.862Z,16.67
2019-01-06T05:42:03.080Z,14.47
2019-01-06T05:47:08.675Z,18.60
2019-01-06T05:52:11.440Z,16.73
2019-01-06T05:57:10.496Z,34.37
2019-01-06T06:02:07.157Z,22.33
2019-01-06T06:07:19.118Z,18.23
2019-01-06T06:12:15.744Z,86.23
2019-01-06T06:17:12.007Z,33.17
2019-01-06T06:22:17.748Z,15.80
2019-01-06T06:27:17.643Z,15.27
2019-01-06T06:32:14.172Z,16.67
2019-01-06T06:37:16.876Z,16.80
2019-01-06T06:42:13.537Z,16.57
2019-01-06T06:47:23.502Z,16.60
2019-01-06T06:52:17.426Z,16.67
2019-01-06T06:57:54.469Z,14.40
2019-01-06T07:02:51.446Z,16.47
2019-01-06T07:07:51.377Z,14.10
2019-01-06T07:12:47.765Z,16.07
2019-01-06T07:17:46.777Z,15.70
2019-01-06T07:22:57.075Z,19.07
2019-01-06T07:27:53.953Z,15.43
2019-01-06T07:32:59.841Z,15.13
2019-01-06T07:37:56.397Z,14.53
2019-01-06T07:42:59.150Z,17.47
2019-01-06T07:47:52.985Z,16.27
2019-01-06T07:52:52.518Z,33.50
2019-01-06T07:57:46.434Z,26.43
2019-01-06T08:02:40.517Z,22.13
2019-01-06T08:07:39.930Z,24.57
2019-01-06T08:12:39.881Z,19.07
2019-01-06T08:17:50.085Z,17.77
2019-01-06T08:22:49.453Z,18.07
2019-01-06T08:27:43.168Z,15.93
2019-01-06T08:32:36.889Z,16.50
2019-01-06T08:37:33.783Z,13.50
2019-01-06T08:42:43.649Z,19.87
2019-01-06T08:47:37.893Z,22.47
2019-01-06T08:52:43.953Z,21.57
2019-01-06T08:57:55.617Z,20.83
2019-01-06T09:03:07.962Z,19.17
2019-01-06T09:08:18.286Z,21.87
2019-01-06T09:13:12.045Z,23.23
2019-01-06T09:18:05.936Z,19.53
2019-01-06T09:23:15.581Z,15.37
2019-01-06T09:28:18.324Z,15.37
2019-01-06T09:33:11.985Z,16.33
2019-01-06T09:38:21.849Z,20.70
2019-01-06T09:43:18.720Z,22.33
2019-01-06T09:48:12.553Z,13.97
2019-01-06T09:53:14.931Z,12.50
2019-01-06T09:58:11.402Z,11.33
2019-01-06T10:03:14.476Z,11.37
2019-01-06T10:08:25.768Z,13.80
2019-01-06T10:13:25.533Z,12.07
2019-01-06T10:18:35.505Z,12.60
2019-01-06T10:23:29.229Z,10.60
2019-01-06T10:28:38.801Z,11.30
2019-01-06T10:33:41.281Z,11.57
2019-01-06T10:38:38.193Z,14.07
2019-01-06T10:43:32.088Z,11.03
2019-01-06T10:48:28.465Z,14.03
2019-01-06T10:53:25.301Z,15.23
2019-01-06T10:58:31.096Z,13.03
2019-01-06T11:03:25.261Z,12.30
2019-01-06T11:08:24.842Z,11.70
2019-01-06T11:13:30.600Z,11.03
2019-01-06T11:18:27.116Z,9.80
2019-01-06T11:23:23.740Z,10.07
2019-01-06T11:28:33.085Z,10.47
2019-01-06T11:33:27.133Z,11.07
2019-01-06T11:38:26.391Z,9.63
2019-01-06T11:43:31.944Z,13.03
2019-01-06T11:48:41.837Z,17.30
2019-01-06T11:53:41.530Z,13.93
2019-01-06T11:58:35.399Z,12.07
2019-01-06T12:03:29.403Z,12.83
2019-01-06T12:08:41.092Z,14.67
2019-01-06T12:13:43.394Z,13.77
2019-01-06T12:18:45.801Z,14.53
2019-01-06T12:23:55.853Z,18.97
2019-01-06T12:29:05.597Z,15.00
2019-01-06T12:34:13.993Z,17.27
2019-01-06T12:39:24.684Z,14.90
2019-01-06T12:44:30.633Z,15.00
2019-01-06T12:49:36.098Z,15.97
2019-01-06T12:54:32.540Z,15.87
2019-01-06T12:59:41.058Z,15.77
2019-01-06T13:04:41.122Z,15.63
2019-01-06T13:09:49.651Z,16.43
2019-01-06T13:14:52.805Z,23.90
2019-01-06T13:20:02.954Z,18.23
2019-01-06T13:24:56.999Z,17.20
2019-01-06T13:29:53.577Z,14.97
2019-01-06T13:34:47.514Z,44.47
2019-01-06T13:39:50.462Z,15.70
2019-01-06T13:45:00.381Z,19.90
2019-01-06T13:50:03.618Z,13.93
2019-01-06T13:55:03.321Z,15.20
2019-01-06T14:00:06.060Z,14.63
2019-01-06T14:05:15.729Z,13.63
2019-01-06T14:10:21.580Z,14.83
2019-01-06T14:15:20.855Z,14.07
2019-01-06T14:20:30.864Z,13.78
2019-01-06T14:25:24.596Z,13.10
2019-01-06T14:30:18.658Z,15.63
2019-01-06T14:35:30.727Z,16.07
2019-01-06T14:40:39.598Z,13.37
2019-01-06T14:45:39.781Z,16.23
2019-01-06T14:50:33.445Z,13.53
2019-01-06T14:55:33.724Z,18.37
2019-01-06T15:00:36.497Z,13.83
2019-01-06T15:05:30.299Z,12.60
2019-01-06T15:10:32.552Z,20.67
2019-01-06T15:15:32.401Z,18.67
2019-01-06T15:20:32.481Z,17.80
2019-01-06T15:25:28.921Z,16.20
2019-01-06T15:30:39.307Z,16.53
2019-01-06T15:35:39.128Z,19.37
2019-01-06T15:40:41.617Z,15.97
2019-01-06T15:45:38.419Z,19.40
2019-01-06T15:50:35.041Z,18.37
2019-01-06T15:55:29.018Z,23.93
2019-01-06T16:00:39.216Z,32.27
2019-01-06T16:05:35.831Z,31.27
2019-01-06T16:10:35.350Z,27.13
2019-01-06T16:15:41.165Z,28.30
2019-01-06T16:20:52.774Z,26.83
2019-01-06T16:26:02.572Z,22.50
2019-01-06T16:31:02.003Z,19.03
2019-01-06T16:35:56.069Z,22.27
2019-01-06T16:40:58.585Z,20.20
2019-01-06T16:46:11.208Z,17.50
2019-01-06T16:51:21.298Z,23.27
2019-01-06T16:56:15.409Z,23.40
2019-01-06T17:01:26.827Z,19.90
2019-01-06T17:06:32.690Z,19.60
2019-01-06T17:11:26.642Z,17.13
2019-01-06T17:16:36.390Z,16.77
2019-01-06T17:21:30.337Z,17.73
2019-01-06T17:26:39.897Z,17.77
2019-01-06T17:31:39.704Z,21.83
2019-01-06T17:36:39.453Z,48.17
2019-01-06T17:41:33.177Z,49.53
2019-01-06T17:46:29.550Z,20.43
2019-01-06T17:51:39.573Z,23.40
2019-01-06T17:56:33.605Z,79.43
2019-01-06T18:01:27.308Z,36.40
2019-01-06T18:06:38.843Z,21.73
2019-01-06T18:11:41.801Z,22.70
2019-01-06T18:16:50.683Z,21.97
2019-01-06T18:22:02.901Z,20.37
2019-01-06T18:27:08.825Z,21.20
2019-01-06T18:32:18.765Z,21.13
2019-01-06T18:37:18.593Z,21.57
2019-01-06T18:42:28.801Z,25.07
2019-01-06T18:47:38.481Z,26.90
2019-01-06T18:52:32.117Z,47.40
2019-01-06T18:57:28.606Z,27.83
2019-01-06T19:02:22.745Z,27.13
2019-01-06T19:07:28.104Z,25.53
2019-01-06T19:12:24.867Z,29.90
2019-01-06T19:17:30.776Z,29.07
2019-01-06T19:22:40.897Z,27.17
2019-01-06T19:27:50.889Z,26.33
2019-01-06T19:32:44.941Z,25.93
2019-01-06T19:37:54.184Z,31.27
2019-01-06T19:42:51.041Z,28.17
2019-01-06T19:47:50.673Z,26.37
2019-01-06T19:52:50.240Z,34.43
2019-01-06T19:57:47.213Z,29.90
2019-01-06T20:02:48.476Z,29.37
2019-01-06T20:07:44.792Z,28.50
2019-01-06T20:12:54.553Z,32.93
2019-01-06T20:17:54.092Z,29.23
2019-01-06T20:23:04.109Z,28.37
2019-01-06T20:27:58.119Z,29.23
2019-01-06T20:32:51.857Z,28.27
2019-01-06T20:38:00.977Z,29.97
2019-01-06T20:42:57.757Z,29.10
2019-01-06T20:48:06.437Z,28.17
2019-01-06T20:53:06.177Z,37.00
2019-01-06T20:58:16.017Z,35.90
2019-01-06T21:03:12.893Z,47.57
2019-01-06T21:08:12.965Z,40.27
2019-01-06T21:13:12.816Z,37.97
2019-01-06T21:18:23.097Z,43.00
2019-01-06T21:23:31.751Z,41.37
2019-01-06T21:28:41.690Z,42.40
2019-01-06T21:33:51.769Z,42.63
2019-01-06T21:39:01.273Z,39.60
2019-01-06T21:44:11.384Z,50.67
2019-01-06T21:49:05.493Z,37.20
2019-01-06T21:54:04.041Z,39.00
2019-01-06T21:59:03.385Z,36.27
2019-01-06T22:04:03.130Z,35.40
2019-01-06T22:08:56.809Z,31.63
2019-01-06T22:14:05.568Z,31.97
2019-01-06T22:19:08.465Z,32.77
2019-01-06T22:24:02.182Z,30.43
2019-01-06T22:29:04.915Z,33.80
2019-01-06T22:33:58.826Z,34.87
2019-01-06T22:38:52.348Z,35.73
2019-01-06T22:44:01.385Z,32.43
2019-01-06T22:49:11.755Z,30.40
2019-01-06T22:54:05.429Z,37.83
2019-01-06T22:59:15.097Z,35.33
2019-01-06T23:04:18.125Z,32.73
2019-01-06T23:09:28.295Z,33.20
2019-01-06T23:14:22.256Z,34.73
2019-01-06T23:19:18.950Z,33.80
2019-01-06T23:24:18.540Z,32.87
2019-01-06T23:29:12.425Z,40.50
2019-01-06T23:34:06.393Z,36.33
2019-01-06T23:39:15.394Z,33.30
2019-01-06T23:44:09.092Z,30.40
2019-01-06T23:49:08.997Z,35.67
2019-01-06T23:54:02.713Z,32.17
2019-01-06T23:59:02.245Z,35.40
